Time;durP1;ratioP1;P1;durP2;ratioP2;P2;SDS_P1;SDS_P2;PMS_P1;PMS_P2;Temp;Humidity;BMP_temperature;BMP_pressure;BME280_temperature;BME280_humidity;BME280_pressure;Samples;Min_cycle;Max_cycle;Signal;HPM_P1;HPM_P2
2024/04/06 00:02:25;;;;;;;3.20;2.13;;;15.90;99.90;;;;;;5052378;28;20032;-71
2024/04/06 00:05:12;;;;;;;3.75;1.98;;;16.00;99.90;;;;;;5057149;28;20033;-72
2024/04/06 00:07:58;;;;;;;3.50;2.13;;;16.00;99.90;;;;;;5068651;28;20089;-71
2024/04/06 00:10:44;;;;;;;6.05;2.00;;;16.00;99.90;;;;;;5067688;28;20028;-71
2024/04/06 00:13:30;;;;;;;3.40;2.30;;;16.00;99.90;;;;;;5064349;28;20093;-71
2024/04/06 00:16:16;;;;;;;4.65;2.17;;;16.00;99.90;;;;;;5065275;28;20029;-71
2024/04/06 00:19:02;;;;;;;3.97;2.10;;;16.10;99.90;;;;;;5068260;28;20500;-71
2024/04/06 00:21:48;;;;;;;3.53;1.92;;;16.00;99.90;;;;;;5058881;28;20370;-71
2024/04/06 00:24:34;;;;;;;3.53;2.42;;;16.10;99.90;;;;;;5067559;28;20482;-71
2024/04/06 00:27:20;;;;;;;3.67;1.98;;;16.10;99.90;;;;;;5065185;28;20378;-71
2024/04/06 00:30:07;;;;;;;6.28;1.95;;;16.10;99.90;;;;;;5052836;28;20043;-71
2024/04/06 00:32:53;;;;;;;3.50;2.28;;;16.10;99.90;;;;;;5066779;28;20031;-72
2024/04/06 00:35:39;;;;;;;4.28;2.20;;;16.10;99.90;;;;;;5075191;28;20039;-71
2024/04/06 00:38:25;;;;;;;4.05;2.33;;;16.10;99.90;;;;;;5058019;28;20044;-75
2024/04/06 00:41:11;;;;;;;6.97;3.22;;;16.10;99.90;;;;;;5056299;28;20488;-75
2024/04/06 00:43:57;;;;;;;5.20;2.65;;;16.10;99.90;;;;;;5053689;28;20072;-75
2024/04/06 00:46:42;;;;;;;2.85;2.08;;;16.10;99.90;;;;;;5050151;28;20039;-74
2024/04/06 00:49:29;;;;;;;3.70;1.98;;;16.10;99.90;;;;;;5064391;28;20047;-75
2024/04/06 00:52:15;;;;;;;4.97;2.15;;;16.00;99.90;;;;;;5060272;28;20033;-74
2024/04/06 00:55:02;;;;;;;4.72;2.30;;;16.00;99.90;;;;;;5054231;28;20404;-74
2024/04/06 00:57:49;;;;;;;3.60;2.00;;;16.00;99.90;;;;;;5066559;28;20075;-74
2024/04/06 01:00:35;;;;;;;3.65;2.08;;;15.90;99.90;;;;;;5067337;28;20530;-74
2024/04/06 01:03:22;;;;;;;4.20;2.08;;;15.90;99.90;;;;;;5058321;28;20637;-74
2024/04/06 01:06:08;;;;;;;3.78;2.20;;;15.90;99.90;;;;;;5060718;28;20083;-74
2024/04/06 01:08:54;;;;;;;3.97;2.05;;;15.80;99.90;;;;;;5058350;28;20047;-74
2024/04/06 01:11:40;;;;;;;4.28;2.22;;;15.80;99.90;;;;;;5062701;28;20029;-74
2024/04/06 01:14:26;;;;;;;4.55;2.05;;;15.80;99.90;;;;;;5061397;28;20033;-74
2024/04/06 01:17:12;;;;;;;3.92;2.38;;;15.80;99.90;;;;;;5067934;28;20107;-78
2024/04/06 01:19:58;;;;;;;5.30;2.35;;;15.70;99.90;;;;;;5065400;28;20076;-77
2024/04/06 01:22:44;;;;;;;3.28;2.17;;;15.70;99.90;;;;;;5057616;28;20060;-78
2024/04/06 01:25:30;;;;;;;3.63;2.53;;;15.70;99.90;;;;;;5053206;28;20110;-78
2024/04/06 01:28:16;;;;;;;3.47;2.55;;;15.70;99.90;;;;;;5065301;28;20033;-78
2024/04/06 01:31:02;;;;;;;3.25;2.05;;;15.60;99.90;;;;;;5065337;28;20122;-77
2024/04/06 01:33:51;;;;;;;5.45;2.75;;;15.60;99.90;;;;;;5058220;28;20059;-74
2024/04/06 01:36:37;;;;;;;4.15;2.50;;;15.50;99.90;;;;;;5053748;28;20090;-73
2024/04/06 01:39:23;;;;;;;6.18;3.15;;;15.50;99.90;;;;;;5057641;28;20487;-73
2024/04/06 01:42:09;;;;;;;5.45;2.58;;;15.50;99.90;;;;;;5050918;28;20457;-74
2024/04/06 01:44:55;;;;;;;5.80;2.70;;;15.50;99.90;;;;;;5057597;28;20541;-73
2024/04/06 01:47:41;;;;;;;6.50;3.33;;;15.40;99.90;;;;;;5050563;28;20044;-73
2024/04/06 01:50:27;;;;;;;4.05;2.28;;;15.40;99.90;;;;;;5065407;28;20047;-73
2024/04/06 01:53:13;;;;;;;5.65;2.47;;;15.40;99.90;;;;;;5065007;28;20102;-73
2024/04/06 01:55:59;;;;;;;4.03;2.60;;;15.40;99.90;;;;;;5048158;28;20389;-73
2024/04/06 01:58:46;;;;;;;4.45;2.67;;;15.40;99.90;;;;;;5070549;28;20059;-73
2024/04/06 02:01:31;;;;;;;4.43;2.70;;;15.40;99.90;;;;;;5054052;28;20745;-73
2024/04/06 02:04:17;;;;;;;3.95;2.70;;;15.40;99.90;;;;;;5065503;28;20047;-68
2024/04/06 02:07:04;;;;;;;5.18;2.25;;;15.40;99.90;;;;;;5053823;28;20033;-68
2024/04/06 02:09:50;;;;;;;4.45;2.53;;;15.30;99.90;;;;;;5056646;28;20041;-67
2024/04/06 02:12:36;;;;;;;3.63;2.22;;;15.30;99.90;;;;;;5054517;28;20033;-68
2024/04/06 02:15:22;;;;;;;3.00;2.17;;;15.30;99.90;;;;;;5056397;28;20392;-67
2024/04/06 02:18:08;;;;;;;5.20;2.42;;;15.30;99.90;;;;;;5063279;28;20067;-72
2024/04/06 02:20:54;;;;;;;5.53;2.50;;;15.30;99.90;;;;;;5061700;28;20067;-71
2024/04/06 02:23:40;;;;;;;4.28;2.60;;;15.30;99.90;;;;;;5064773;28;20115;-71
2024/04/06 02:26:26;;;;;;;3.53;2.10;;;15.30;99.90;;;;;;5061411;28;20037;-72
2024/04/06 02:29:12;;;;;;;3.83;2.25;;;15.20;99.90;;;;;;5053245;28;20044;-71
2024/04/06 02:31:58;;;;;;;5.60;2.90;;;15.30;99.90;;;;;;5058262;28;20032;-71
2024/04/06 02:34:43;;;;;;;4.82;2.70;;;15.30;99.90;;;;;;5069865;28;20039;-72
2024/04/06 02:37:29;;;;;;;5.40;2.45;;;15.20;99.90;;;;;;5059544;28;20164;-72
2024/04/06 02:40:15;;;;;;;4.00;2.80;;;15.20;99.90;;;;;;5069602;28;20037;-74
2024/04/06 02:43:01;;;;;;;5.90;2.15;;;15.20;99.90;;;;;;5069081;28;20197;-73
2024/04/06 02:45:47;;;;;;;4.15;2.40;;;15.20;99.90;;;;;;5057705;28;20037;-74
2024/04/06 02:48:33;;;;;;;4.05;2.65;;;15.20;99.90;;;;;;5065772;28;20032;-74
2024/04/06 02:51:19;;;;;;;4.88;2.33;;;15.20;99.90;;;;;;5065085;28;20040;-74
2024/04/06 02:54:05;;;;;;;3.75;2.13;;;15.10;99.90;;;;;;5062909;28;20108;-74
2024/04/06 02:56:51;;;;;;;6.40;2.53;;;15.10;99.90;;;;;;5069910;28;20048;-74
2024/04/06 02:59:37;;;;;;;4.93;2.42;;;15.10;99.90;;;;;;5071975;28;20120;-74
2024/04/06 03:02:24;;;;;;;3.60;2.08;;;15.10;99.90;;;;;;5066927;28;20033;-75
2024/04/06 03:05:10;;;;;;;3.55;2.22;;;15.10;99.90;;;;;;5052505;28;20029;-76
2024/04/06 03:07:56;;;;;;;4.05;2.58;;;15.10;99.90;;;;;;5051466;28;20123;-74
2024/04/06 03:10:42;;;;;;;4.50;2.50;;;15.10;99.90;;;;;;5067054;28;20040;-73
2024/04/06 03:13:28;;;;;;;3.72;1.73;;;15.10;99.90;;;;;;5067887;28;20032;-74
2024/04/06 03:16:14;;;;;;;3.88;2.50;;;15.10;99.90;;;;;;5072384;28;20036;-74
2024/04/06 03:19:00;;;;;;;3.25;2.28;;;15.10;99.90;;;;;;5058859;28;20105;-74
2024/04/06 03:21:46;;;;;;;6.30;2.58;;;15.10;99.90;;;;;;5054278;28;20435;-74
2024/04/06 03:24:32;;;;;;;4.35;2.45;;;15.10;99.90;;;;;;5062131;28;20041;-74
2024/04/06 03:27:18;;;;;;;4.80;2.20;;;15.10;99.90;;;;;;5053045;28;20033;-74
2024/04/06 03:30:04;;;;;;;5.35;2.55;;;15.10;99.90;;;;;;5061995;28;20047;-75
2024/04/06 03:32:51;;;;;;;3.10;1.80;;;15.10;99.90;;;;;;5062196;28;20048;-75
2024/04/06 03:35:37;;;;;;;3.40;2.20;;;15.10;99.90;;;;;;5065762;28;20035;-73
2024/04/06 03:38:22;;;;;;;3.85;2.42;;;15.10;99.90;;;;;;5068166;28;20049;-76
2024/04/06 03:41:09;;;;;;;2.53;1.70;;;15.10;99.90;;;;;;5056665;28;20053;-74
2024/04/06 03:43:55;;;;;;;2.92;2.00;;;15.10;99.90;;;;;;5051975;28;20037;-75
2024/04/06 03:46:41;;;;;;;4.03;2.50;;;15.10;99.90;;;;;;5067141;28;20032;-75
2024/04/06 03:49:27;;;;;;;3.63;2.33;;;15.10;99.90;;;;;;5058098;28;20037;-75
2024/04/06 03:52:13;;;;;;;4.70;2.13;;;15.10;99.90;;;;;;5063375;28;20115;-75
2024/04/06 03:55:00;;;;;;;3.47;2.05;;;15.10;99.90;;;;;;5058499;28;20111;-78
2024/04/06 03:57:47;;;;;;;2.60;1.83;;;15.10;99.90;;;;;;5051313;28;20292;-78
2024/04/06 04:00:33;;;;;;;4.28;2.42;;;15.10;99.90;;;;;;5052784;28;20031;-79
2024/04/06 04:03:19;;;;;;;3.30;2.03;;;15.10;99.90;;;;;;5060641;28;20036;-79
2024/04/06 04:06:06;;;;;;;3.83;2.30;;;15.00;99.90;;;;;;5060327;28;20029;-79
2024/04/06 04:08:52;;;;;;;3.28;2.35;;;15.00;99.90;;;;;;5059120;28;20542;-79
2024/04/06 04:11:38;;;;;;;3.47;2.20;;;15.00;99.90;;;;;;5071669;28;20522;-79
2024/04/06 04:14:23;;;;;;;5.20;2.42;;;15.00;99.90;;;;;;5059626;28;20079;-79
2024/04/06 04:17:09;;;;;;;4.03;2.30;;;15.00;99.90;;;;;;5068798;28;20480;-78
2024/04/06 04:19:55;;;;;;;4.18;2.60;;;14.90;99.90;;;;;;5065185;28;21488;-78
2024/04/06 04:22:41;;;;;;;4.25;2.33;;;14.90;99.90;;;;;;5052571;28;20021;-77
2024/04/06 04:25:29;;;;;;;4.20;2.25;;;14.90;99.90;;;;;;5063620;28;20031;-78
2024/04/06 04:28:15;;;;;;;6.10;2.13;;;14.90;99.90;;;;;;5053498;28;20037;-68
2024/04/06 04:31:13;;;;;;;6.30;2.67;;;14.90;99.90;;;;;;5058409;28;20461;-68
2024/04/06 04:33:59;;;;;;;5.22;2.88;;;14.90;99.90;;;;;;5058619;28;20083;-68
2024/04/06 04:36:45;;;;;;;3.28;2.05;;;14.90;99.90;;;;;;5053592;28;20036;-68
2024/04/06 04:39:32;;;;;;;4.50;2.30;;;14.80;99.90;;;;;;5055184;28;20090;-68
2024/04/06 04:42:18;;;;;;;3.17;2.30;;;14.80;99.90;;;;;;5068183;28;20481;-68
2024/04/06 04:45:12;;;;;;;4.05;2.53;;;14.80;99.90;;;;;;5052514;28;20441;-68
2024/04/06 04:47:58;;;;;;;4.22;2.40;;;14.80;99.90;;;;;;5056299;28;20396;-68
2024/04/06 04:50:44;;;;;;;4.90;2.20;;;14.80;99.90;;;;;;5066783;28;20071;-68
2024/04/06 04:53:30;;;;;;;4.00;2.30;;;14.70;99.90;;;;;;5060964;28;20408;-68
2024/04/06 04:56:16;;;;;;;3.35;2.20;;;14.80;99.90;;;;;;5062280;28;20391;-68
2024/04/06 04:59:03;;;;;;;2.75;1.90;;;14.80;99.90;;;;;;5057001;28;20033;-69
2024/04/06 05:01:49;;;;;;;5.18;2.13;;;14.80;99.90;;;;;;5049385;28;20116;-68
2024/04/06 05:04:35;;;;;;;5.75;2.45;;;14.80;99.90;;;;;;5050906;28;20040;-69
2024/04/06 05:07:22;;;;;;;3.92;1.98;;;14.80;99.90;;;;;;5059167;28;20029;-76
2024/04/06 05:10:09;;;;;;;5.72;2.38;;;14.80;99.90;;;;;;5056696;28;20033;-76
2024/04/06 05:12:55;;;;;;;3.35;2.45;;;14.80;99.90;;;;;;5051271;28;20102;-75
2024/04/06 05:15:49;;;;;;;4.40;2.38;;;14.80;99.90;;;;;;5060152;28;20139;-75
2024/04/06 05:18:35;;;;;;;5.28;2.42;;;14.80;99.90;;;;;;5058957;28;20090;-75
2024/04/06 05:21:21;;;;;;;4.22;2.30;;;14.80;99.90;;;;;;5059806;28;20045;-75
2024/04/06 05:24:07;;;;;;;5.20;2.40;;;14.80;99.90;;;;;;5055808;28;20071;-76
2024/04/06 05:26:53;;;;;;;4.18;2.83;;;14.90;99.90;;;;;;5069514;28;20075;-76
2024/04/06 05:29:39;;;;;;;3.13;2.03;;;15.00;99.90;;;;;;5054509;28;20056;-75
2024/04/06 05:32:25;;;;;;;3.60;2.33;;;15.00;99.90;;;;;;5052576;28;20036;-76
2024/04/06 05:35:11;;;;;;;5.72;2.42;;;15.10;99.90;;;;;;5057572;28;20043;-76
2024/04/06 05:37:56;;;;;;;3.38;2.15;;;15.10;99.90;;;;;;5068976;28;20044;-75
2024/04/06 05:40:44;;;;;;;4.30;2.42;;;15.20;99.90;;;;;;5055972;28;20071;-76
2024/04/06 05:43:31;;;;;;;3.63;2.70;;;15.30;99.90;;;;;;5049462;28;20059;-75
2024/04/06 05:46:17;;;;;;;3.35;2.20;;;15.30;99.90;;;;;;5053779;28;20029;-75
2024/04/06 05:49:05;;;;;;;2.58;1.90;;;15.30;99.90;;;;;;5049577;28;20029;-77
2024/04/06 05:51:51;;;;;;;2.58;1.83;;;15.40;99.90;;;;;;5053368;28;20037;-77
2024/04/06 05:54:37;;;;;;;4.63;2.47;;;15.40;99.90;;;;;;5059745;28;20033;-77
2024/04/06 05:57:23;;;;;;;3.03;1.90;;;15.40;99.90;;;;;;5051479;28;20033;-77
2024/04/06 06:00:10;;;;;;;2.55;1.80;;;15.50;99.90;;;;;;5057511;28;20040;-80
2024/04/06 06:02:56;;;;;;;2.78;1.67;;;15.50;99.90;;;;;;5054090;28;20044;-80
2024/04/06 06:05:42;;;;;;;4.57;2.28;;;15.50;99.90;;;;;;5058753;28;20407;-80
2024/04/06 06:08:28;;;;;;;4.95;1.98;;;15.60;99.90;;;;;;5057519;28;20396;-80
2024/04/06 06:11:13;;;;;;;4.68;1.92;;;15.60;99.90;;;;;;5054490;28;20040;-81
2024/04/06 06:13:59;;;;;;;3.13;1.70;;;15.60;99.90;;;;;;5053662;28;20091;-79
2024/04/06 06:16:45;;;;;;;3.20;2.15;;;15.60;99.90;;;;;;5060831;28;20064;-80
2024/04/06 06:19:31;;;;;;;6.47;2.80;;;15.70;99.90;;;;;;5052620;28;20048;-80
2024/04/06 06:22:17;;;;;;;4.22;2.15;;;15.80;99.90;;;;;;5064600;28;20024;-78
2024/04/06 06:25:03;;;;;;;3.22;2.40;;;15.90;99.90;;;;;;5064400;28;20488;-78
2024/04/06 06:27:50;;;;;;;3.75;2.30;;;15.90;99.90;;;;;;5068915;28;20021;-73
2024/04/06 06:30:41;;;;;;;3.28;2.15;;;16.00;99.90;;;;;;5065792;28;20028;-68
2024/04/06 06:33:27;;;;;;;3.63;2.10;;;16.10;99.90;;;;;;5068223;28;20037;-73
2024/04/06 06:36:14;;;;;;;3.35;1.90;;;16.20;99.90;;;;;;5062256;28;20397;-75
2024/04/06 06:39:00;;;;;;;3.05;1.85;;;16.20;99.90;;;;;;5060217;28;20563;-74
2024/04/06 06:41:46;;;;;;;5.47;2.45;;;16.30;99.90;;;;;;5054418;28;20476;-71
2024/04/06 06:44:32;;;;;;;3.47;1.90;;;16.40;99.90;;;;;;5052151;28;20040;-71
2024/04/06 06:47:17;;;;;;;3.28;2.10;;;16.50;99.90;;;;;;5062869;28;20455;-71
2024/04/06 06:50:04;;;;;;;6.60;2.10;;;16.50;99.90;;;;;;5050428;28;20322;-71
2024/04/06 06:52:50;;;;;;;5.70;1.88;;;16.60;99.90;;;;;;5056119;28;20127;-71
2024/04/06 06:55:36;;;;;;;3.83;1.70;;;16.70;99.90;;;;;;5065757;28;20033;-71
2024/04/06 06:58:22;;;;;;;10.15;2.38;;;16.70;99.90;;;;;;5067209;28;20401;-71
2024/04/06 07:01:08;;;;;;;4.13;2.17;;;16.80;99.90;;;;;;5052227;28;20021;-72
2024/04/06 07:03:54;;;;;;;3.25;2.00;;;16.80;99.90;;;;;;5057621;28;20125;-73
2024/04/06 07:06:40;;;;;;;2.75;1.50;;;16.90;99.90;;;;;;5064227;28;20025;-73
2024/04/06 07:09:26;;;;;;;3.10;2.20;;;17.00;99.90;;;;;;5050830;28;20037;-72
2024/04/06 07:12:12;;;;;;;6.10;2.00;;;17.00;99.90;;;;;;5060143;28;20029;-73
2024/04/06 07:14:57;;;;;;;3.60;2.33;;;17.10;99.90;;;;;;5049193;28;20037;-73
2024/04/06 07:17:44;;;;;;;4.03;2.10;;;17.20;99.90;;;;;;5067794;28;20060;-73
2024/04/06 07:20:30;;;;;;;3.88;2.20;;;17.30;99.90;;;;;;5068375;28;20392;-73
2024/04/06 07:23:16;;;;;;;4.15;2.10;;;17.40;99.90;;;;;;5060143;28;20040;-82
2024/04/06 07:26:03;;;;;;;3.97;1.73;;;17.40;99.90;;;;;;5063125;28;20037;-73
2024/04/06 07:28:48;;;;;;;2.60;1.83;;;17.50;99.90;;;;;;5065574;28;20120;-73
2024/04/06 07:31:34;;;;;;;3.70;1.73;;;17.50;99.90;;;;;;5057100;28;20099;-73
2024/04/06 07:34:20;;;;;;;4.05;1.98;;;17.60;99.90;;;;;;5053335;28;20040;-73
2024/04/06 07:37:06;;;;;;;3.70;1.80;;;17.60;99.90;;;;;;5056642;28;20066;-73
2024/04/06 07:39:52;;;;;;;4.65;2.83;;;17.60;99.90;;;;;;5053145;28;20059;-73
2024/04/06 07:42:38;;;;;;;3.33;2.20;;;17.70;99.90;;;;;;5056786;28;20064;-73
2024/04/06 07:45:24;;;;;;;2.45;1.77;;;17.70;99.90;;;;;;5054833;28;20043;-73
2024/04/06 07:48:10;;;;;;;3.75;2.13;;;17.80;99.90;;;;;;5064384;28;20024;-73
2024/04/06 07:50:56;;;;;;;5.78;1.70;;;17.90;99.90;;;;;;5063669;28;20041;-73
2024/04/06 07:53:42;;;;;;;4.93;1.77;;;18.00;99.90;;;;;;5068424;28;20408;-73
2024/04/06 07:56:28;;;;;;;4.38;2.22;;;18.00;99.90;;;;;;5061882;28;20107;-73
2024/04/06 07:59:13;;;;;;;2.85;1.42;;;18.00;99.90;;;;;;5053699;28;20048;-75
2024/04/06 08:01:59;;;;;;;3.30;2.00;;;18.00;99.90;;;;;;5059899;28;20063;-74
2024/04/06 08:04:45;;;;;;;2.45;1.50;;;18.00;99.90;;;;;;5060374;28;20043;-72
2024/04/06 08:07:33;;;;;;;2.80;1.50;;;18.10;99.90;;;;;;5058193;28;20054;-73
2024/04/06 08:10:20;;;;;;;4.63;2.17;;;18.10;99.90;;;;;;5070545;28;20064;-74
2024/04/06 08:13:06;;;;;;;5.50;1.70;;;18.20;99.90;;;;;;5053875;28;20031;-74
2024/04/06 08:15:52;;;;;;;2.85;1.40;;;18.20;99.90;;;;;;5058188;28;20028;-74
2024/04/06 08:18:38;;;;;;;4.47;1.92;;;18.20;99.90;;;;;;5053077;28;20049;-74
2024/04/06 08:21:24;;;;;;;2.97;1.60;;;18.30;99.90;;;;;;5050882;28;20025;-74
2024/04/06 08:24:10;;;;;;;2.58;1.55;;;18.30;99.90;;;;;;5057543;28;20116;-74
2024/04/06 08:26:56;;;;;;;2.47;1.58;;;18.40;99.90;;;;;;5068037;28;20040;-74
2024/04/06 08:29:42;;;;;;;2.15;1.40;;;18.50;99.90;;;;;;5065366;28;20032;-74
2024/04/06 08:32:29;;;;;;;2.67;1.20;;;18.50;99.90;;;;;;5069289;28;20038;-74
2024/04/06 08:35:15;;;;;;;1.90;1.40;;;18.60;99.90;;;;;;5059632;28;20033;-73
2024/04/06 08:38:01;;;;;;;3.97;1.48;;;18.70;99.90;;;;;;5065057;28;20093;-83
2024/04/06 08:40:48;;;;;;;4.05;1.58;;;18.80;99.70;;;;;;5049836;28;20056;-80
2024/04/06 08:43:43;;;;;;;2.17;1.30;;;18.80;99.60;;;;;;5063308;28;20062;-77
2024/04/06 08:46:29;;;;;;;2.90;1.42;;;18.80;99.40;;;;;;5060175;28;20033;-75
2024/04/06 08:49:15;;;;;;;4.30;1.70;;;18.90;99.40;;;;;;5056309;28;20036;-75
2024/04/06 08:52:01;;;;;;;3.75;1.60;;;18.90;99.30;;;;;;5050912;28;20068;-74
2024/04/06 08:54:47;;;;;;;3.42;1.88;;;19.00;99.20;;;;;;5064354;28;20033;-74
2024/04/06 08:57:37;;;;;;;2.80;1.52;;;19.10;99.10;;;;;;5065861;28;20048;-74
2024/04/06 09:00:27;;;;;;;3.15;1.60;;;19.20;99.00;;;;;;5065620;28;20109;-74
2024/04/06 09:03:13;;;;;;;2.65;1.55;;;19.20;98.90;;;;;;5069715;28;20056;-74
2024/04/06 09:05:59;;;;;;;3.05;1.50;;;19.30;99.00;;;;;;5066757;28;20194;-75
2024/04/06 09:08:46;;;;;;;3.53;1.60;;;19.40;98.90;;;;;;5055726;28;20025;-74
2024/04/06 09:11:32;;;;;;;1.92;1.30;;;19.40;98.80;;;;;;5056058;28;20396;-74
2024/04/06 09:14:18;;;;;;;1.83;1.58;;;19.50;98.80;;;;;;5055647;28;20120;-74
2024/04/06 09:17:04;;;;;;;6.88;1.70;;;19.60;98.60;;;;;;5064422;28;20036;-74
2024/04/06 09:19:50;;;;;;;2.88;1.38;;;19.60;98.40;;;;;;5061466;28;20076;-72
2024/04/06 09:22:36;;;;;;;2.08;1.25;;;19.60;98.20;;;;;;5048434;28;20064;-75
2024/04/06 09:25:22;;;;;;;3.08;1.50;;;19.70;98.10;;;;;;5062511;28;20036;-74
2024/04/06 09:28:10;;;;;;;4.30;1.50;;;19.70;98.00;;;;;;5068428;28;20035;-77
2024/04/06 09:30:58;;;;;;;4.95;1.65;;;19.80;98.00;;;;;;5057801;28;20067;-77
2024/04/06 09:33:45;;;;;;;23.58;4.75;;;19.90;97.90;;;;;;5069335;28;20089;-73
2024/04/06 09:36:38;;;;;;;4.15;1.90;;;20.00;97.80;;;;;;5058189;28;20111;-72
2024/04/06 09:39:24;;;;;;;4.25;1.77;;;20.10;97.70;;;;;;5054521;28;20072;-72
2024/04/06 09:42:12;;;;;;;2.92;1.50;;;20.20;97.50;;;;;;5065949;28;20394;-72
2024/04/06 09:45:00;;;;;;;8.60;2.30;;;20.30;97.40;;;;;;5070176;28;20040;-71
2024/04/06 09:47:46;;;;;;;6.40;2.03;;;20.40;97.30;;;;;;5055574;28;20032;-72
2024/04/06 09:50:32;;;;;;;4.15;2.20;;;20.40;97.20;;;;;;5060842;28;20378;-72
2024/04/06 09:53:19;;;;;;;3.45;2.05;;;20.50;97.00;;;;;;5065360;28;20431;-73
2024/04/06 09:56:07;;;;;;;3.83;1.90;;;20.60;96.90;;;;;;5063350;28;20086;-69
2024/04/06 09:58:53;;;;;;;2.70;1.65;;;20.70;97.00;;;;;;5063960;28;20066;-70
2024/04/06 10:01:45;;;;;;;3.42;1.70;;;20.80;96.80;;;;;;5061285;28;20166;-70
2024/04/06 10:04:36;;;;;;;3.65;2.17;;;20.90;96.60;;;;;;5052756;28;20036;-70
2024/04/06 10:07:38;;;;;;;2.97;1.50;;;21.00;96.40;;;;;;5059586;28;20040;-70
2024/04/06 10:10:31;;;;;;;2.80;1.38;;;21.10;96.30;;;;;;5069467;28;20039;-70
2024/04/06 10:13:20;;;;;;;3.10;1.48;;;21.20;96.20;;;;;;5064074;28;20549;-70
2024/04/06 10:16:07;;;;;;;1.77;1.10;;;21.20;95.90;;;;;;5064429;28;20162;-70
2024/04/06 10:18:57;;;;;;;3.45;1.70;;;21.30;95.80;;;;;;5062399;28;20083;-70
2024/04/06 10:21:46;;;;;;;1.55;1.00;;;21.40;95.60;;;;;;5070195;28;20052;-71
2024/04/06 10:24:36;;;;;;;2.17;1.45;;;21.60;95.50;;;;;;5061810;28;20586;-71
2024/04/06 10:27:25;;;;;;;6.05;1.30;;;21.60;95.30;;;;;;5049186;28;20040;-71
2024/04/06 10:30:11;;;;;;;3.03;1.30;;;21.70;95.00;;;;;;5062085;28;20047;-71
2024/04/06 10:32:57;;;;;;;5.40;1.40;;;21.80;95.10;;;;;;5069170;28;20036;-71
2024/04/06 10:35:48;;;;;;;1.75;1.20;;;21.90;95.00;;;;;;5053102;28;20375;-71
2024/04/06 10:38:34;;;;;;;1.92;1.35;;;22.00;94.90;;;;;;5058408;28;20178;-70
2024/04/06 10:41:21;;;;;;;3.20;1.30;;;22.10;94.60;;;;;;5050494;28;20125;-70
2024/04/06 10:44:08;;;;;;;3.22;1.23;;;22.30;94.60;;;;;;5058677;28;20047;-70
2024/04/06 10:46:55;;;;;;;3.63;1.30;;;22.40;94.40;;;;;;5050416;28;20036;-72
2024/04/06 10:49:46;;;;;;;3.90;1.70;;;22.50;94.60;;;;;;5059580;28;20037;-73
2024/04/06 10:52:32;;;;;;;5.60;1.58;;;22.70;94.30;;;;;;5072233;28;20039;-73
2024/04/06 10:55:21;;;;;;;2.33;1.15;;;22.70;94.00;;;;;;5059192;28;20039;-72
2024/04/06 10:58:08;;;;;;;5.30;1.42;;;22.80;93.90;;;;;;5057615;28;20048;-72
2024/04/06 11:00:54;;;;;;;5.32;1.08;;;22.80;93.70;;;;;;5067537;28;20025;-72
2024/04/06 11:03:40;;;;;;;1.23;1.05;;;22.90;93.30;;;;;;5066538;28;20048;-72
2024/04/06 11:06:26;;;;;;;3.17;1.30;;;22.90;93.10;;;;;;5065745;28;20117;-73
2024/04/06 11:09:12;;;;;;;5.70;1.00;;;23.00;92.90;;;;;;5063836;28;20074;-73
2024/04/06 11:11:58;;;;;;;3.92;1.38;;;23.10;92.80;;;;;;5062534;28;20392;-73
2024/04/06 11:14:49;;;;;;;2.47;1.15;;;23.20;92.60;;;;;;5060828;28;20040;-73
2024/04/06 11:17:35;;;;;;;2.47;1.45;;;23.20;92.40;;;;;;5073704;28;20037;-73
2024/04/06 11:20:22;;;;;;;1.85;1.50;;;23.20;92.30;;;;;;5066977;28;20032;-72
2024/04/06 11:23:21;;;;;;;1.90;1.35;;;23.30;92.20;;;;;;5066051;28;20473;-72
2024/04/06 11:26:07;;;;;;;2.08;1.10;;;23.30;92.10;;;;;;5070386;28;20036;-72
2024/04/06 11:28:53;;;;;;;2.35;1.20;;;23.30;91.80;;;;;;5056830;28;20033;-73
2024/04/06 11:31:39;;;;;;;1.85;1.20;;;23.40;91.60;;;;;;5051604;28;20085;-73
2024/04/06 11:34:25;;;;;;;3.38;1.30;;;23.40;91.40;;;;;;5053436;28;20483;-73
2024/04/06 11:37:11;;;;;;;2.35;1.00;;;23.40;91.30;;;;;;5064189;28;20032;-73
2024/04/06 11:39:57;;;;;;;1.23;1.02;;;23.40;91.40;;;;;;5069536;28;20057;-72
2024/04/06 11:42:43;;;;;;;2.03;1.17;;;23.50;91.20;;;;;;5064113;28;20032;-73
2024/04/06 11:45:29;;;;;;;5.00;1.90;;;23.50;91.00;;;;;;5059238;28;20029;-72
2024/04/06 11:48:15;;;;;;;1.90;1.00;;;23.50;90.80;;;;;;5062153;28;20037;-74
2024/04/06 11:51:01;;;;;;;1.40;0.90;;;23.50;90.70;;;;;;5063190;28;20028;-74
2024/04/06 11:53:47;;;;;;;2.65;1.33;;;23.50;90.80;;;;;;5068481;28;20029;-73
2024/04/06 11:56:33;;;;;;;1.80;1.15;;;23.50;90.70;;;;;;5071261;28;20036;-72
2024/04/06 11:59:19;;;;;;;1.92;1.15;;;23.50;90.60;;;;;;5069230;28;20048;-73
2024/04/06 12:02:05;;;;;;;1.80;0.77;;;23.50;90.50;;;;;;5057929;28;20590;-73
2024/04/06 12:04:51;;;;;;;2.72;1.33;;;23.50;90.40;;;;;;5053506;28;20036;-73
2024/04/06 12:07:39;;;;;;;1.42;0.65;;;23.50;90.40;;;;;;5064667;28;20031;-73
2024/04/06 12:10:24;;;;;;;2.05;1.33;;;23.40;90.40;;;;;;5071701;28;20032;-73
2024/04/06 12:13:10;;;;;;;1.67;1.23;;;23.40;90.30;;;;;;5068784;28;20029;-73
2024/04/06 12:15:56;;;;;;;2.75;1.40;;;23.40;90.30;;;;;;5068539;28;20040;-72
2024/04/06 12:18:42;;;;;;;3.35;1.08;;;23.30;90.10;;;;;;5066005;28;20041;-73
2024/04/06 12:21:29;;;;;;;2.28;0.85;;;23.30;90.20;;;;;;5061400;28;20033;-73
2024/04/06 12:24:15;;;;;;;2.65;1.27;;;23.30;90.10;;;;;;5064639;28;20442;-73
2024/04/06 12:27:01;;;;;;;3.85;1.00;;;23.40;90.10;;;;;;5060361;28;20442;-73
2024/04/06 12:29:49;;;;;;;3.63;1.20;;;23.40;90.20;;;;;;5072295;28;20047;-73
2024/04/06 12:32:35;;;;;;;1.50;1.10;;;23.30;90.10;;;;;;5073128;28;20036;-73
2024/04/06 12:35:21;;;;;;;1.65;1.05;;;23.30;90.00;;;;;;5062274;28;20048;-73
2024/04/06 12:38:08;;;;;;;2.42;1.00;;;23.30;90.20;;;;;;5063328;28;20519;-73
2024/04/06 12:40:54;;;;;;;1.10;0.90;;;23.30;90.20;;;;;;5055902;28;20099;-73
2024/04/06 12:43:39;;;;;;;1.65;1.45;;;23.30;90.20;;;;;;5063225;28;20032;-76
2024/04/06 12:46:25;;;;;;;1.25;0.98;;;23.30;90.00;;;;;;5065948;28;20560;-74
2024/04/06 12:49:11;;;;;;;3.40;1.30;;;23.40;90.00;;;;;;5066885;28;20028;-73
2024/04/06 12:51:57;;;;;;;2.17;1.27;;;23.40;90.00;;;;;;5057482;28;20063;-72
2024/04/06 12:54:43;;;;;;;8.13;1.40;;;23.40;90.00;;;;;;5062802;28;20025;-75
2024/04/06 12:57:42;;;;;;;3.40;1.10;;;23.50;90.00;;;;;;5058897;28;20036;-75
2024/04/06 13:00:28;;;;;;;2.72;1.15;;;23.50;89.50;;;;;;5052204;28;20055;-75
2024/04/06 13:03:14;;;;;;;1.45;1.08;;;23.50;89.00;;;;;;5056088;28;20020;-74
2024/04/06 13:06:03;;;;;;;0.68;0.68;;;23.50;88.90;;;;;;5071183;28;20403;-74
2024/04/06 13:08:49;;;;;;;1.65;1.13;;;23.60;88.40;;;;;;5060749;28;20037;-74
2024/04/06 13:11:35;;;;;;;1.35;0.82;;;23.60;88.50;;;;;;5052149;28;20041;-73
2024/04/06 13:14:21;;;;;;;2.03;1.30;;;23.60;88.00;;;;;;5057144;28;20036;-72
2024/04/06 13:17:07;;;;;;;1.00;0.90;;;23.70;88.10;;;;;;5061737;28;20044;-74
2024/04/06 13:19:55;;;;;;;1.40;0.77;;;23.70;88.20;;;;;;5059927;28;20438;-73
2024/04/06 13:22:41;;;;;;;2.50;1.20;;;23.80;87.70;;;;;;5067141;28;20036;-73
2024/04/06 13:25:27;;;;;;;2.47;1.00;;;23.90;87.70;;;;;;5061248;28;20373;-73
2024/04/06 13:28:14;;;;;;;1.42;1.00;;;24.00;87.70;;;;;;5067633;28;20124;-72
2024/04/06 13:30:59;;;;;;;3.00;1.15;;;24.00;87.50;;;;;;5053190;28;20041;-73
2024/04/06 13:33:45;;;;;;;1.75;0.90;;;24.10;87.70;;;;;;5059248;28;20401;-73
2024/04/06 13:36:31;;;;;;;0.98;0.75;;;24.20;87.10;;;;;;5061534;28;20051;-73
2024/04/06 13:39:19;;;;;;;1.52;0.77;;;24.30;86.90;;;;;;5065439;28;20130;-74
2024/04/06 13:42:05;;;;;;;1.65;0.60;;;24.30;86.90;;;;;;5060527;28;20028;-74
2024/04/06 13:44:51;;;;;;;1.80;1.02;;;24.40;86.50;;;;;;5060658;28;20040;-74
2024/04/06 13:47:41;;;;;;;1.67;0.95;;;24.50;86.00;;;;;;5059779;28;20070;-74
2024/04/06 13:50:27;;;;;;;2.53;1.10;;;24.70;85.80;;;;;;5060018;28;20514;-73
2024/04/06 13:53:13;;;;;;;2.10;1.13;;;24.80;85.70;;;;;;5056186;28;20469;-73
2024/04/06 13:55:59;;;;;;;1.25;0.77;;;24.90;85.40;;;;;;5053936;28;20537;-73
2024/04/06 13:58:45;;;;;;;1.00;0.80;;;25.00;84.80;;;;;;5066936;28;20074;-73
2024/04/06 14:01:31;;;;;;;1.15;0.98;;;25.10;84.10;;;;;;5066156;28;20430;-74
2024/04/06 14:04:17;;;;;;;3.33;1.23;;;25.20;83.60;;;;;;5057185;28;20039;-74
2024/04/06 14:07:04;;;;;;;1.55;1.10;;;25.30;83.50;;;;;;5062031;28;20524;-73
2024/04/06 14:09:49;;;;;;;2.28;1.20;;;25.30;83.50;;;;;;5061528;28;20033;-77
2024/04/06 14:12:36;;;;;;;1.77;0.98;;;25.40;83.50;;;;;;5065840;28;20510;-77
2024/04/06 14:15:22;;;;;;;1.60;1.20;;;25.40;83.00;;;;;;5057519;28;20064;-77
2024/04/06 14:18:08;;;;;;;1.30;0.93;;;25.40;83.10;;;;;;5063511;28;20413;-75
2024/04/06 14:20:54;;;;;;;1.48;0.93;;;25.40;82.70;;;;;;5059475;28;20098;-74
2024/04/06 14:23:40;;;;;;;1.40;0.95;;;25.40;82.50;;;;;;5055152;28;20093;-80
2024/04/06 14:26:26;;;;;;;1.38;0.93;;;25.50;82.10;;;;;;5071203;28;20111;-75
2024/04/06 14:29:15;;;;;;;0.68;0.68;;;25.60;82.20;;;;;;5069811;28;20040;-75